Portada
METAR-TAF:

METAR-TAF

Aeropuertos :

Aeropuerto Internacional Hercílio Luz

Florianópolis, Santa Catarina, Brasil

latitud: 27-40S, longitud: 048-33W, altitud: 5 m

Observación

El informe se hizo hace 34 minutos, a las 12:00 UTC
Viento 10 kt del norte
Temperatura 19°C
Humedad 94%
Presión 1019 hPa
Visibilidad 10 km o más
sin nubes por debajo de 1500 m y sin presencia de cumulonimbus.

METAR: SBFL 181200Z 01010KT CAVOK 19/18 Q1019

Hora: 09:34 (12:34 UTC)

Pronóstico

El informe se hizo hace 3 horas y 34 minutos, a las 09:00 UTC
Pronóstico válido del 18 a las 12 UTC al 19 a las 12 UTC
Viento 11 kt del norte
Visibilidad 10 km o más
sin nubes por debajo de 1500 m y sin presencia de cumulonimbus.
Evolucionando progresivamente
del 18 a las 22 UTC al 18 a las 24 UTC
Viento 6 kt del norte

TAF: SBFL 180900Z 1812/1912 36011KT CAVOK TX23/1816Z TN18/1908Z BECMG 1822/1824 35006KT RMK PDW

Observaciones y pronósticos meteorológicos de más de 4000 aeropuertos (mensajes METAR y TAF).

Los puntos amarillos y rojos representan las estaciones disponibles.

Ponga el ratón en el punto deseado para ver el nombre de la estación.

Haga clic para ver las observaciones y los pronósticos meteorológicos.

Para cambiar el mapa : haga clic en los botones verdes con una cruz de color negro para hacer un zoom, en el botón verde con un guión para alejar o en las flechas verdes para mapas adyacentes.


METAR-TAF: